sensor_id;sensor_type;location;lat;lon;timestamp;P1;durP1;ratioP1;P2;durP2;ratioP2
74636;SDS011;63141;54.616;39.754;2022-09-17T00:00:39;5.88;;;3.97;;
74636;SDS011;63141;54.616;39.754;2022-09-17T00:03:41;8.60;;;4.50;;
74636;SDS011;63141;54.616;39.754;2022-09-17T00:06:45;8.68;;;4.00;;
74636;SDS011;63141;54.616;39.754;2022-09-17T00:09:46;5.43;;;4.10;;
74636;SDS011;63141;54.616;39.754;2022-09-17T00:12:48;5.20;;;3.97;;
74636;SDS011;63141;54.616;39.754;2022-09-17T00:15:50;6.35;;;3.53;;
74636;SDS011;63141;54.616;39.754;2022-09-17T00:18:52;7.07;;;3.70;;
74636;SDS011;63141;54.616;39.754;2022-09-17T00:21:54;6.18;;;3.78;;
74636;SDS011;63141;54.616;39.754;2022-09-17T00:24:55;5.28;;;3.75;;
74636;SDS011;63141;54.616;39.754;2022-09-17T00:27:57;6.60;;;3.72;;
74636;SDS011;63141;54.616;39.754;2022-09-17T00:30:58;5.75;;;4.20;;
74636;SDS011;63141;54.616;39.754;2022-09-17T00:34:00;7.38;;;3.63;;
74636;SDS011;63141;54.616;39.754;2022-09-17T00:37:03;5.32;;;3.80;;
74636;SDS011;63141;54.616;39.754;2022-09-17T00:40:04;7.38;;;4.00;;
74636;SDS011;63141;54.616;39.754;2022-09-17T00:43:09;5.20;;;3.53;;
74636;SDS011;63141;54.616;39.754;2022-09-17T00:49:23;5.10;;;3.45;;
74636;SDS011;63141;54.616;39.754;2022-09-17T00:52:36;4.85;;;3.03;;
74636;SDS011;63141;54.616;39.754;2022-09-17T00:55:42;5.05;;;3.78;;
74636;SDS011;63141;54.616;39.754;2022-09-17T00:58:57;9.10;;;3.70;;
74636;SDS011;63141;54.616;39.754;2022-09-17T01:02:04;6.10;;;3.45;;
74636;SDS011;63141;54.616;39.754;2022-09-17T01:11:28;4.00;;;3.25;;
74636;SDS011;63141;54.616;39.754;2022-09-17T01:18:21;5.35;;;3.35;;
74636;SDS011;63141;54.616;39.754;2022-09-17T01:21:50;6.28;;;3.05;;
74636;SDS011;63141;54.616;39.754;2022-09-17T01:25:22;4.22;;;3.55;;
74636;SDS011;63141;54.616;39.754;2022-09-17T01:31:51;5.32;;;3.45;;
74636;SDS011;63141;54.616;39.754;2022-09-17T01:38:32;3.92;;;3.10;;
74636;SDS011;63141;54.616;39.754;2022-09-17T01:41:49;4.68;;;3.65;;
74636;SDS011;63141;54.616;39.754;2022-09-17T01:48:02;4.95;;;3.72;;
74636;SDS011;63141;54.616;39.754;2022-09-17T01:51:21;4.68;;;3.53;;
74636;SDS011;63141;54.616;39.754;2022-09-17T01:54:27;5.38;;;3.08;;
74636;SDS011;63141;54.616;39.754;2022-09-17T01:57:34;4.28;;;3.20;;
74636;SDS011;63141;54.616;39.754;2022-09-17T02:00:41;6.07;;;3.30;;
74636;SDS011;63141;54.616;39.754;2022-09-17T02:08:08;5.40;;;3.22;;
74636;SDS011;63141;54.616;39.754;2022-09-17T02:11:14;4.50;;;2.97;;
74636;SDS011;63141;54.616;39.754;2022-09-17T02:14:29;5.30;;;3.00;;
74636;SDS011;63141;54.616;39.754;2022-09-17T02:17:39;5.20;;;2.80;;
74636;SDS011;63141;54.616;39.754;2022-09-17T02:20:49;4.05;;;3.03;;
74636;SDS011;63141;54.616;39.754;2022-09-17T02:30:45;4.75;;;2.95;;
74636;SDS011;63141;54.616;39.754;2022-09-17T02:33:48;4.15;;;2.92;;
74636;SDS011;63141;54.616;39.754;2022-09-17T02:36:53;3.67;;;2.85;;
74636;SDS011;63141;54.616;39.754;2022-09-17T02:39:56;3.70;;;2.60;;
74636;SDS011;63141;54.616;39.754;2022-09-17T02:43:07;4.47;;;2.58;;
74636;SDS011;63141;54.616;39.754;2022-09-17T02:56:28;3.97;;;2.90;;
74636;SDS011;63141;54.616;39.754;2022-09-17T03:00:18;4.93;;;2.60;;
74636;SDS011;63141;54.616;39.754;2022-09-17T03:03:21;5.65;;;3.25;;
74636;SDS011;63141;54.616;39.754;2022-09-17T03:06:31;4.13;;;2.80;;
74636;SDS011;63141;54.616;39.754;2022-09-17T03:09:33;4.43;;;3.20;;
74636;SDS011;63141;54.616;39.754;2022-09-17T03:12:35;3.75;;;2.80;;
74636;SDS011;63141;54.616;39.754;2022-09-17T03:15:37;5.03;;;2.72;;
74636;SDS011;63141;54.616;39.754;2022-09-17T03:18:39;3.95;;;2.60;;
74636;SDS011;63141;54.616;39.754;2022-09-17T03:21:40;4.15;;;2.97;;
74636;SDS011;63141;54.616;39.754;2022-09-17T03:24:41;4.47;;;2.70;;
74636;SDS011;63141;54.616;39.754;2022-09-17T03:27:43;3.42;;;2.70;;
74636;SDS011;63141;54.616;39.754;2022-09-17T03:30:44;3.05;;;2.75;;
74636;SDS011;63141;54.616;39.754;2022-09-17T03:33:46;3.78;;;2.55;;
74636;SDS011;63141;54.616;39.754;2022-09-17T03:36:47;3.92;;;2.83;;
74636;SDS011;63141;54.616;39.754;2022-09-17T03:39:48;4.20;;;2.38;;
74636;SDS011;63141;54.616;39.754;2022-09-17T03:42:50;4.18;;;2.78;;
74636;SDS011;63141;54.616;39.754;2022-09-17T03:45:51;3.42;;;2.47;;
74636;SDS011;63141;54.616;39.754;2022-09-17T03:48:53;2.90;;;2.35;;
74636;SDS011;63141;54.616;39.754;2022-09-17T03:51:54;3.72;;;2.90;;
74636;SDS011;63141;54.616;39.754;2022-09-17T03:54:55;4.45;;;2.83;;
74636;SDS011;63141;54.616;39.754;2022-09-17T03:57:57;3.80;;;2.72;;
74636;SDS011;63141;54.616;39.754;2022-09-17T04:01:01;3.47;;;2.80;;
74636;SDS011;63141;54.616;39.754;2022-09-17T04:04:04;3.22;;;2.70;;
74636;SDS011;63141;54.616;39.754;2022-09-17T04:07:08;4.07;;;2.83;;
74636;SDS011;63141;54.616;39.754;2022-09-17T04:10:09;3.55;;;2.53;;
74636;SDS011;63141;54.616;39.754;2022-09-17T04:13:11;3.20;;;2.60;;
74636;SDS011;63141;54.616;39.754;2022-09-17T04:16:14;2.95;;;2.35;;
74636;SDS011;63141;54.616;39.754;2022-09-17T04:19:15;3.38;;;2.70;;
74636;SDS011;63141;54.616;39.754;2022-09-17T04:22:17;4.25;;;2.65;;
74636;SDS011;63141;54.616;39.754;2022-09-17T04:25:18;3.53;;;2.80;;
74636;SDS011;63141;54.616;39.754;2022-09-17T04:28:20;3.13;;;2.50;;
74636;SDS011;63141;54.616;39.754;2022-09-17T04:31:21;3.40;;;2.60;;
74636;SDS011;63141;54.616;39.754;2022-09-17T04:34:24;2.20;;;2.00;;
74636;SDS011;63141;54.616;39.754;2022-09-17T04:37:26;3.80;;;2.65;;
74636;SDS011;63141;54.616;39.754;2022-09-17T04:40:27;3.28;;;2.58;;
74636;SDS011;63141;54.616;39.754;2022-09-17T04:43:44;3.35;;;2.65;;
74636;SDS011;63141;54.616;39.754;2022-09-17T04:46:45;4.03;;;2.95;;
74636;SDS011;63141;54.616;39.754;2022-09-17T04:49:47;3.97;;;2.78;;
74636;SDS011;63141;54.616;39.754;2022-09-17T04:52:48;4.07;;;2.80;;
74636;SDS011;63141;54.616;39.754;2022-09-17T04:55:50;5.68;;;2.90;;
74636;SDS011;63141;54.616;39.754;2022-09-17T04:58:51;3.38;;;2.60;;
74636;SDS011;63141;54.616;39.754;2022-09-17T05:01:55;3.95;;;2.80;;
74636;SDS011;63141;54.616;39.754;2022-09-17T05:04:56;3.30;;;2.60;;
74636;SDS011;63141;54.616;39.754;2022-09-17T05:08:00;3.85;;;2.40;;
74636;SDS011;63141;54.616;39.754;2022-09-17T05:11:02;4.40;;;2.90;;
74636;SDS011;63141;54.616;39.754;2022-09-17T05:14:03;4.43;;;2.53;;
74636;SDS011;63141;54.616;39.754;2022-09-17T05:17:05;10.02;;;3.40;;
74636;SDS011;63141;54.616;39.754;2022-09-17T05:20:06;5.80;;;3.33;;
74636;SDS011;63141;54.616;39.754;2022-09-17T05:23:08;6.32;;;3.08;;
74636;SDS011;63141;54.616;39.754;2022-09-17T05:26:10;9.50;;;3.70;;
74636;SDS011;63141;54.616;39.754;2022-09-17T05:29:11;7.07;;;3.22;;
74636;SDS011;63141;54.616;39.754;2022-09-17T05:32:13;7.60;;;3.60;;
74636;SDS011;63141;54.616;39.754;2022-09-17T05:35:14;5.47;;;3.75;;
74636;SDS011;63141;54.616;39.754;2022-09-17T05:38:16;6.15;;;3.90;;
74636;SDS011;63141;54.616;39.754;2022-09-17T05:41:18;6.47;;;3.58;;
74636;SDS011;63141;54.616;39.754;2022-09-17T05:44:20;7.32;;;3.50;;
74636;SDS011;63141;54.616;39.754;2022-09-17T05:47:22;6.35;;;3.88;;
74636;SDS011;63141;54.616;39.754;2022-09-17T05:50:24;7.65;;;3.50;;
74636;SDS011;63141;54.616;39.754;2022-09-17T05:53:26;5.97;;;3.47;;
74636;SDS011;63141;54.616;39.754;2022-09-17T05:56:28;5.72;;;3.38;;
74636;SDS011;63141;54.616;39.754;2022-09-17T05:59:29;7.82;;;3.30;;
74636;SDS011;63141;54.616;39.754;2022-09-17T06:02:34;6.85;;;3.70;;
74636;SDS011;63141;54.616;39.754;2022-09-17T06:05:38;6.22;;;4.00;;
74636;SDS011;63141;54.616;39.754;2022-09-17T06:08:39;9.07;;;4.22;;
74636;SDS011;63141;54.616;39.754;2022-09-17T06:11:41;7.95;;;4.32;;
74636;SDS011;63141;54.616;39.754;2022-09-17T06:14:42;8.77;;;4.35;;
74636;SDS011;63141;54.616;39.754;2022-09-17T06:17:43;8.90;;;3.78;;
74636;SDS011;63141;54.616;39.754;2022-09-17T06:20:54;6.25;;;3.80;;
74636;SDS011;63141;54.616;39.754;2022-09-17T06:23:57;8.20;;;4.03;;
74636;SDS011;63141;54.616;39.754;2022-09-17T06:27:00;7.40;;;4.00;;
74636;SDS011;63141;54.616;39.754;2022-09-17T06:30:02;6.43;;;3.92;;
74636;SDS011;63141;54.616;39.754;2022-09-17T06:33:03;8.25;;;3.45;;
74636;SDS011;63141;54.616;39.754;2022-09-17T06:36:06;8.90;;;4.25;;
74636;SDS011;63141;54.616;39.754;2022-09-17T06:39:09;6.28;;;3.90;;
74636;SDS011;63141;54.616;39.754;2022-09-17T06:42:11;5.60;;;3.80;;
74636;SDS011;63141;54.616;39.754;2022-09-17T06:45:13;8.35;;;4.13;;
74636;SDS011;63141;54.616;39.754;2022-09-17T06:48:14;6.97;;;4.10;;
74636;SDS011;63141;54.616;39.754;2022-09-17T06:51:16;10.70;;;4.07;;
74636;SDS011;63141;54.616;39.754;2022-09-17T06:54:17;8.43;;;4.10;;
74636;SDS011;63141;54.616;39.754;2022-09-17T06:57:18;7.28;;;4.00;;
74636;SDS011;63141;54.616;39.754;2022-09-17T07:00:22;7.63;;;4.07;;
74636;SDS011;63141;54.616;39.754;2022-09-17T07:03:24;5.35;;;3.65;;
74636;SDS011;63141;54.616;39.754;2022-09-17T07:06:28;7.10;;;3.55;;
74636;SDS011;63141;54.616;39.754;2022-09-17T07:09:29;7.72;;;3.78;;
74636;SDS011;63141;54.616;39.754;2022-09-17T07:12:30;7.57;;;3.97;;
74636;SDS011;63141;54.616;39.754;2022-09-17T07:15:32;8.38;;;3.83;;
74636;SDS011;63141;54.616;39.754;2022-09-17T07:18:33;6.13;;;3.67;;
74636;SDS011;63141;54.616;39.754;2022-09-17T07:21:35;7.45;;;4.35;;
74636;SDS011;63141;54.616;39.754;2022-09-17T07:24:36;7.38;;;4.22;;
74636;SDS011;63141;54.616;39.754;2022-09-17T07:27:37;10.50;;;4.38;;
74636;SDS011;63141;54.616;39.754;2022-09-17T07:30:40;8.50;;;4.07;;
74636;SDS011;63141;54.616;39.754;2022-09-17T07:33:41;9.73;;;4.47;;
74636;SDS011;63141;54.616;39.754;2022-09-17T07:36:42;10.00;;;4.72;;
74636;SDS011;63141;54.616;39.754;2022-09-17T07:39:44;9.50;;;5.00;;
74636;SDS011;63141;54.616;39.754;2022-09-17T07:42:45;6.95;;;4.53;;
74636;SDS011;63141;54.616;39.754;2022-09-17T07:45:47;6.22;;;4.90;;
74636;SDS011;63141;54.616;39.754;2022-09-17T07:48:48;9.50;;;4.97;;
74636;SDS011;63141;54.616;39.754;2022-09-17T07:51:51;10.38;;;4.82;;
74636;SDS011;63141;54.616;39.754;2022-09-17T07:54:54;13.48;;;6.45;;
74636;SDS011;63141;54.616;39.754;2022-09-17T07:57:56;16.98;;;6.97;;
74636;SDS011;63141;54.616;39.754;2022-09-17T08:01:00;27.50;;;8.27;;
74636;SDS011;63141;54.616;39.754;2022-09-17T08:04:05;29.33;;;8.15;;
74636;SDS011;63141;54.616;39.754;2022-09-17T08:07:10;25.45;;;8.55;;
74636;SDS011;63141;54.616;39.754;2022-09-17T08:10:12;16.95;;;8.02;;
74636;SDS011;63141;54.616;39.754;2022-09-17T08:13:14;19.73;;;8.65;;
74636;SDS011;63141;54.616;39.754;2022-09-17T08:16:15;15.00;;;8.48;;
74636;SDS011;63141;54.616;39.754;2022-09-17T08:19:18;16.17;;;9.20;;
74636;SDS011;63141;54.616;39.754;2022-09-17T08:22:21;24.08;;;10.20;;
74636;SDS011;63141;54.616;39.754;2022-09-17T08:25:22;17.38;;;9.57;;
74636;SDS011;63141;54.616;39.754;2022-09-17T08:28:25;14.80;;;9.73;;
74636;SDS011;63141;54.616;39.754;2022-09-17T08:31:28;15.88;;;9.77;;
74636;SDS011;63141;54.616;39.754;2022-09-17T08:34:30;17.67;;;9.80;;
74636;SDS011;63141;54.616;39.754;2022-09-17T08:37:31;13.20;;;8.68;;
74636;SDS011;63141;54.616;39.754;2022-09-17T08:40:35;12.43;;;9.27;;
74636;SDS011;63141;54.616;39.754;2022-09-17T08:47:24;19.20;;;8.75;;
74636;SDS011;63141;54.616;39.754;2022-09-17T08:50:29;19.00;;;8.02;;
74636;SDS011;63141;54.616;39.754;2022-09-17T08:53:39;12.65;;;8.10;;
74636;SDS011;63141;54.616;39.754;2022-09-17T09:00:33;15.80;;;8.50;;
74636;SDS011;63141;54.616;39.754;2022-09-17T09:07:14;14.77;;;7.85;;
74636;SDS011;63141;54.616;39.754;2022-09-17T09:10:20;19.83;;;9.50;;
74636;SDS011;63141;54.616;39.754;2022-09-17T09:13:28;19.02;;;8.65;;
74636;SDS011;63141;54.616;39.754;2022-09-17T09:16:37;14.43;;;9.27;;
74636;SDS011;63141;54.616;39.754;2022-09-17T09:19:42;15.95;;;8.40;;
74636;SDS011;63141;54.616;39.754;2022-09-17T09:22:49;11.95;;;8.43;;
74636;SDS011;63141;54.616;39.754;2022-09-17T09:26:05;13.48;;;8.65;;
74636;SDS011;63141;54.616;39.754;2022-09-17T09:29:29;15.15;;;8.90;;
74636;SDS011;63141;54.616;39.754;2022-09-17T09:36:35;10.57;;;7.32;;
74636;SDS011;63141;54.616;39.754;2022-09-17T09:39:38;14.38;;;7.03;;
74636;SDS011;63141;54.616;39.754;2022-09-17T09:42:42;11.50;;;7.18;;
74636;SDS011;63141;54.616;39.754;2022-09-17T09:56:05;25.60;;;6.43;;
74636;SDS011;63141;54.616;39.754;2022-09-17T09:59:10;19.55;;;6.43;;
74636;SDS011;63141;54.616;39.754;2022-09-17T10:02:12;23.35;;;5.78;;
74636;SDS011;63141;54.616;39.754;2022-09-17T10:05:19;26.17;;;6.05;;
74636;SDS011;63141;54.616;39.754;2022-09-17T10:08:20;25.73;;;10.57;;
74636;SDS011;63141;54.616;39.754;2022-09-17T10:11:25;17.95;;;7.20;;
74636;SDS011;63141;54.616;39.754;2022-09-17T10:14:50;23.60;;;11.48;;
74636;SDS011;63141;54.616;39.754;2022-09-17T10:24:30;16.73;;;7.03;;
74636;SDS011;63141;54.616;39.754;2022-09-17T10:27:34;22.85;;;6.95;;
74636;SDS011;63141;54.616;39.754;2022-09-17T10:30:36;87.03;;;55.92;;
74636;SDS011;63141;54.616;39.754;2022-09-17T10:33:39;17.77;;;6.68;;
74636;SDS011;63141;54.616;39.754;2022-09-17T10:36:51;15.85;;;8.13;;
74636;SDS011;63141;54.616;39.754;2022-09-17T10:39:55;55.17;;;30.38;;
74636;SDS011;63141;54.616;39.754;2022-09-17T10:46:26;35.22;;;20.27;;
74636;SDS011;63141;54.616;39.754;2022-09-17T10:49:35;31.52;;;12.98;;
74636;SDS011;63141;54.616;39.754;2022-09-17T10:52:45;288.33;;;197.68;;
74636;SDS011;63141;54.616;39.754;2022-09-17T11:05:57;23.38;;;13.90;;
74636;SDS011;63141;54.616;39.754;2022-09-17T11:09:31;17.35;;;11.85;;
74636;SDS011;63141;54.616;39.754;2022-09-17T11:26:07;10.88;;;7.75;;
74636;SDS011;63141;54.616;39.754;2022-09-17T11:36:22;13.88;;;7.20;;
74636;SDS011;63141;54.616;39.754;2022-09-17T11:39:45;21.42;;;6.55;;
74636;SDS011;63141;54.616;39.754;2022-09-17T11:49:04;11.35;;;5.63;;
74636;SDS011;63141;54.616;39.754;2022-09-17T12:01:55;15.32;;;5.35;;
74636;SDS011;63141;54.616;39.754;2022-09-17T12:05:03;8.13;;;4.75;;
74636;SDS011;63141;54.616;39.754;2022-09-17T12:08:17;14.27;;;5.10;;
74636;SDS011;63141;54.616;39.754;2022-09-17T12:14:42;13.82;;;5.22;;
74636;SDS011;63141;54.616;39.754;2022-09-17T12:18:26;8.70;;;4.65;;
74636;SDS011;63141;54.616;39.754;2022-09-17T12:21:57;7.37;;;4.60;;
74636;SDS011;63141;54.616;39.754;2022-09-17T12:25:01;6.68;;;4.82;;
74636;SDS011;63141;54.616;39.754;2022-09-17T12:28:08;9.70;;;4.50;;
74636;SDS011;63141;54.616;39.754;2022-09-17T12:31:38;12.32;;;4.80;;
74636;SDS011;63141;54.616;39.754;2022-09-17T12:47:52;6.80;;;3.75;;
74636;SDS011;63141;54.616;39.754;2022-09-17T12:54:20;9.52;;;4.20;;
74636;SDS011;63141;54.616;39.754;2022-09-17T13:01:06;5.45;;;3.80;;
74636;SDS011;63141;54.616;39.754;2022-09-17T13:18:10;7.43;;;3.72;;
74636;SDS011;63141;54.616;39.754;2022-09-17T13:21:18;6.30;;;4.00;;
74636;SDS011;63141;54.616;39.754;2022-09-17T13:24:34;5.28;;;3.42;;
74636;SDS011;63141;54.616;39.754;2022-09-17T13:27:37;40.00;;;12.13;;
74636;SDS011;63141;54.616;39.754;2022-09-17T13:30:56;333.58;;;149.00;;
74636;SDS011;63141;54.616;39.754;2022-09-17T13:34:02;411.20;;;194.10;;
74636;SDS011;63141;54.616;39.754;2022-09-17T13:37:04;327.00;;;143.80;;
74636;SDS011;63141;54.616;39.754;2022-09-17T13:43:30;220.52;;;95.18;;
74636;SDS011;63141;54.616;39.754;2022-09-17T13:46:32;202.35;;;91.88;;
74636;SDS011;63141;54.616;39.754;2022-09-17T13:49:35;202.73;;;90.80;;
74636;SDS011;63141;54.616;39.754;2022-09-17T13:52:48;197.15;;;86.15;;
74636;SDS011;63141;54.616;39.754;2022-09-17T13:55:52;179.15;;;83.95;;
74636;SDS011;63141;54.616;39.754;2022-09-17T13:59:03;190.05;;;84.22;;
74636;SDS011;63141;54.616;39.754;2022-09-17T14:05:30;172.10;;;80.78;;
74636;SDS011;63141;54.616;39.754;2022-09-17T14:08:45;171.10;;;82.28;;
74636;SDS011;63141;54.616;39.754;2022-09-17T14:11:47;171.15;;;80.40;;
74636;SDS011;63141;54.616;39.754;2022-09-17T14:14:49;170.50;;;80.85;;
74636;SDS011;63141;54.616;39.754;2022-09-17T14:17:52;169.45;;;79.88;;
74636;SDS011;63141;54.616;39.754;2022-09-17T14:27:57;156.25;;;74.75;;
74636;SDS011;63141;54.616;39.754;2022-09-17T14:31:08;164.02;;;74.13;;
74636;SDS011;63141;54.616;39.754;2022-09-17T14:34:18;153.98;;;74.22;;
74636;SDS011;63141;54.616;39.754;2022-09-17T14:37:22;148.45;;;74.50;;
74636;SDS011;63141;54.616;39.754;2022-09-17T14:40:26;155.85;;;74.15;;
74636;SDS011;63141;54.616;39.754;2022-09-17T14:46:58;135.20;;;69.35;;
74636;SDS011;63141;54.616;39.754;2022-09-17T14:50:22;139.93;;;70.20;;
74636;SDS011;63141;54.616;39.754;2022-09-17T14:53:26;149.85;;;69.93;;
74636;SDS011;63141;54.616;39.754;2022-09-17T14:56:27;135.05;;;65.88;;
74636;SDS011;63141;54.616;39.754;2022-09-17T15:02:48;137.68;;;66.57;;
74636;SDS011;63141;54.616;39.754;2022-09-17T15:05:58;127.50;;;63.65;;
74636;SDS011;63141;54.616;39.754;2022-09-17T15:08:59;127.22;;;61.28;;
74636;SDS011;63141;54.616;39.754;2022-09-17T15:12:01;139.85;;;63.95;;
74636;SDS011;63141;54.616;39.754;2022-09-17T15:15:09;130.70;;;61.67;;
74636;SDS011;63141;54.616;39.754;2022-09-17T15:18:18;119.43;;;58.95;;
74636;SDS011;63141;54.616;39.754;2022-09-17T15:24:35;127.63;;;60.00;;
74636;SDS011;63141;54.616;39.754;2022-09-17T15:27:48;125.28;;;58.40;;
74636;SDS011;63141;54.616;39.754;2022-09-17T15:31:10;116.47;;;55.45;;
74636;SDS011;63141;54.616;39.754;2022-09-17T15:34:18;107.95;;;55.30;;
74636;SDS011;63141;54.616;39.754;2022-09-17T15:37:24;118.60;;;56.35;;
74636;SDS011;63141;54.616;39.754;2022-09-17T15:40:35;106.25;;;53.97;;
74636;SDS011;63141;54.616;39.754;2022-09-17T15:43:39;104.90;;;53.97;;
74636;SDS011;63141;54.616;39.754;2022-09-17T15:46:41;103.72;;;53.10;;
74636;SDS011;63141;54.616;39.754;2022-09-17T15:49:43;99.28;;;52.35;;
74636;SDS011;63141;54.616;39.754;2022-09-17T15:56:15;103.22;;;50.55;;
74636;SDS011;63141;54.616;39.754;2022-09-17T15:59:23;105.28;;;50.88;;
74636;SDS011;63141;54.616;39.754;2022-09-17T16:02:30;104.28;;;50.65;;
74636;SDS011;63141;54.616;39.754;2022-09-17T16:05:45;91.17;;;47.77;;
74636;SDS011;63141;54.616;39.754;2022-09-17T16:12:37;82.82;;;45.80;;
74636;SDS011;63141;54.616;39.754;2022-09-17T16:15:39;88.22;;;47.05;;
74636;SDS011;63141;54.616;39.754;2022-09-17T16:18:41;91.20;;;45.35;;
74636;SDS011;63141;54.616;39.754;2022-09-17T16:21:45;92.32;;;43.95;;
74636;SDS011;63141;54.616;39.754;2022-09-17T16:24:47;87.07;;;44.47;;
74636;SDS011;63141;54.616;39.754;2022-09-17T16:27:50;84.28;;;42.90;;
74636;SDS011;63141;54.616;39.754;2022-09-17T16:33:58;76.90;;;41.88;;
74636;SDS011;63141;54.616;39.754;2022-09-17T16:37:01;77.00;;;42.33;;
74636;SDS011;63141;54.616;39.754;2022-09-17T16:40:02;78.70;;;41.55;;
74636;SDS011;63141;54.616;39.754;2022-09-17T16:43:05;77.50;;;41.55;;
74636;SDS011;63141;54.616;39.754;2022-09-17T16:46:27;77.25;;;38.45;;
74636;SDS011;63141;54.616;39.754;2022-09-17T16:49:29;70.15;;;39.13;;
74636;SDS011;63141;54.616;39.754;2022-09-17T16:52:33;80.05;;;40.05;;
74636;SDS011;63141;54.616;39.754;2022-09-17T16:55:37;71.90;;;38.42;;
74636;SDS011;63141;54.616;39.754;2022-09-17T16:58:39;69.22;;;38.00;;
74636;SDS011;63141;54.616;39.754;2022-09-17T17:01:43;62.63;;;36.92;;
74636;SDS011;63141;54.616;39.754;2022-09-17T17:04:56;73.43;;;37.60;;
74636;SDS011;63141;54.616;39.754;2022-09-17T17:07:59;63.72;;;36.22;;
74636;SDS011;63141;54.616;39.754;2022-09-17T17:11:01;63.40;;;36.38;;
74636;SDS011;63141;54.616;39.754;2022-09-17T17:14:03;70.40;;;36.63;;
74636;SDS011;63141;54.616;39.754;2022-09-17T17:17:08;68.35;;;35.42;;
74636;SDS011;63141;54.616;39.754;2022-09-17T17:20:11;65.65;;;35.78;;
74636;SDS011;63141;54.616;39.754;2022-09-17T17:23:15;63.83;;;35.03;;
74636;SDS011;63141;54.616;39.754;2022-09-17T17:26:18;63.85;;;33.50;;
74636;SDS011;63141;54.616;39.754;2022-09-17T17:29:24;60.20;;;33.45;;
74636;SDS011;63141;54.616;39.754;2022-09-17T17:32:26;65.43;;;33.83;;
74636;SDS011;63141;54.616;39.754;2022-09-17T17:36:00;58.75;;;30.65;;
74636;SDS011;63141;54.616;39.754;2022-09-17T17:39:04;59.85;;;33.58;;
74636;SDS011;63141;54.616;39.754;2022-09-17T17:42:06;60.50;;;33.72;;
74636;SDS011;63141;54.616;39.754;2022-09-17T17:45:08;60.80;;;31.98;;
74636;SDS011;63141;54.616;39.754;2022-09-17T17:48:18;60.60;;;31.60;;
74636;SDS011;63141;54.616;39.754;2022-09-17T17:51:23;57.58;;;30.92;;
74636;SDS011;63141;54.616;39.754;2022-09-17T17:54:26;53.33;;;29.05;;
74636;SDS011;63141;54.616;39.754;2022-09-17T17:57:28;56.58;;;30.02;;
74636;SDS011;63141;54.616;39.754;2022-09-17T18:00:34;52.72;;;28.75;;
74636;SDS011;63141;54.616;39.754;2022-09-17T18:03:44;55.35;;;29.25;;
74636;SDS011;63141;54.616;39.754;2022-09-17T18:07:05;52.95;;;28.52;;
74636;SDS011;63141;54.616;39.754;2022-09-17T18:10:14;50.75;;;27.83;;
74636;SDS011;63141;54.616;39.754;2022-09-17T18:13:22;47.25;;;26.52;;
74636;SDS011;63141;54.616;39.754;2022-09-17T18:16:49;53.78;;;26.58;;
74636;SDS011;63141;54.616;39.754;2022-09-17T18:19:55;46.72;;;26.15;;
74636;SDS011;63141;54.616;39.754;2022-09-17T18:22:59;46.30;;;26.10;;
74636;SDS011;63141;54.616;39.754;2022-09-17T18:26:06;44.08;;;24.52;;
74636;SDS011;63141;54.616;39.754;2022-09-17T18:29:14;47.35;;;25.38;;
74636;SDS011;63141;54.616;39.754;2022-09-17T18:32:16;43.15;;;25.35;;
74636;SDS011;63141;54.616;39.754;2022-09-17T18:35:23;43.85;;;23.67;;
74636;SDS011;63141;54.616;39.754;2022-09-17T18:38:24;48.13;;;24.58;;
74636;SDS011;63141;54.616;39.754;2022-09-17T18:41:27;42.85;;;23.52;;
74636;SDS011;63141;54.616;39.754;2022-09-17T18:44:52;41.05;;;22.48;;
74636;SDS011;63141;54.616;39.754;2022-09-17T18:47:55;65.07;;;25.08;;
74636;SDS011;63141;54.616;39.754;2022-09-17T18:51:01;71.75;;;25.27;;
74636;SDS011;63141;54.616;39.754;2022-09-17T18:54:07;63.88;;;25.30;;
74636;SDS011;63141;54.616;39.754;2022-09-17T18:57:29;52.20;;;22.45;;
74636;SDS011;63141;54.616;39.754;2022-09-17T19:00:32;55.67;;;23.75;;
74636;SDS011;63141;54.616;39.754;2022-09-17T19:03:41;57.22;;;23.58;;
74636;SDS011;63141;54.616;39.754;2022-09-17T19:06:42;62.38;;;24.10;;
74636;SDS011;63141;54.616;39.754;2022-09-17T19:09:46;65.85;;;24.05;;
74636;SDS011;63141;54.616;39.754;2022-09-17T19:12:48;54.20;;;25.48;;
74636;SDS011;63141;54.616;39.754;2022-09-17T19:15:58;49.72;;;24.88;;
74636;SDS011;63141;54.616;39.754;2022-09-17T19:19:04;52.85;;;23.30;;
74636;SDS011;63141;54.616;39.754;2022-09-17T19:22:28;63.70;;;24.23;;
74636;SDS011;63141;54.616;39.754;2022-09-17T19:25:36;49.33;;;24.40;;
74636;SDS011;63141;54.616;39.754;2022-09-17T19:28:41;51.35;;;24.05;;
74636;SDS011;63141;54.616;39.754;2022-09-17T19:31:44;54.15;;;24.05;;
74636;SDS011;63141;54.616;39.754;2022-09-17T19:35:08;49.28;;;23.33;;
74636;SDS011;63141;54.616;39.754;2022-09-17T19:38:12;50.75;;;22.20;;
74636;SDS011;63141;54.616;39.754;2022-09-17T19:41:16;52.40;;;21.77;;
74636;SDS011;63141;54.616;39.754;2022-09-17T19:44:20;42.97;;;19.45;;
74636;SDS011;63141;54.616;39.754;2022-09-17T19:47:24;49.33;;;20.58;;
74636;SDS011;63141;54.616;39.754;2022-09-17T19:50:27;46.53;;;20.50;;
74636;SDS011;63141;54.616;39.754;2022-09-17T19:53:34;39.47;;;19.30;;
74636;SDS011;63141;54.616;39.754;2022-09-17T19:56:38;40.33;;;17.58;;
74636;SDS011;63141;54.616;39.754;2022-09-17T19:59:39;37.20;;;18.73;;
74636;SDS011;63141;54.616;39.754;2022-09-17T20:03:01;51.80;;;18.77;;
74636;SDS011;63141;54.616;39.754;2022-09-17T20:06:12;44.85;;;19.38;;
74636;SDS011;63141;54.616;39.754;2022-09-17T20:09:14;38.27;;;17.67;;
74636;SDS011;63141;54.616;39.754;2022-09-17T20:12:17;41.97;;;18.58;;
74636;SDS011;63141;54.616;39.754;2022-09-17T20:15:20;32.15;;;17.58;;
74636;SDS011;63141;54.616;39.754;2022-09-17T20:18:21;34.60;;;17.67;;
74636;SDS011;63141;54.616;39.754;2022-09-17T20:21:24;34.10;;;16.98;;
74636;SDS011;63141;54.616;39.754;2022-09-17T20:24:47;36.35;;;17.50;;
74636;SDS011;63141;54.616;39.754;2022-09-17T20:27:50;35.85;;;16.63;;
74636;SDS011;63141;54.616;39.754;2022-09-17T20:31:03;29.50;;;15.45;;
74636;SDS011;63141;54.616;39.754;2022-09-17T20:34:10;28.77;;;15.50;;
74636;SDS011;63141;54.616;39.754;2022-09-17T20:37:12;27.23;;;15.45;;
74636;SDS011;63141;54.616;39.754;2022-09-17T20:40:13;30.30;;;14.57;;
74636;SDS011;63141;54.616;39.754;2022-09-17T20:43:15;30.45;;;15.05;;
74636;SDS011;63141;54.616;39.754;2022-09-17T20:46:17;29.60;;;15.10;;
74636;SDS011;63141;54.616;39.754;2022-09-17T20:49:19;29.10;;;15.27;;
74636;SDS011;63141;54.616;39.754;2022-09-17T20:52:20;30.60;;;14.57;;
74636;SDS011;63141;54.616;39.754;2022-09-17T20:55:21;31.00;;;15.27;;
74636;SDS011;63141;54.616;39.754;2022-09-17T20:58:23;25.67;;;14.05;;
74636;SDS011;63141;54.616;39.754;2022-09-17T21:01:26;25.23;;;13.73;;
74636;SDS011;63141;54.616;39.754;2022-09-17T21:04:39;32.97;;;14.02;;
74636;SDS011;63141;54.616;39.754;2022-09-17T21:07:40;27.25;;;13.65;;
74636;SDS011;63141;54.616;39.754;2022-09-17T21:10:42;27.58;;;12.57;;
74636;SDS011;63141;54.616;39.754;2022-09-17T21:13:43;22.00;;;13.48;;
74636;SDS011;63141;54.616;39.754;2022-09-17T21:16:45;26.77;;;12.70;;
74636;SDS011;63141;54.616;39.754;2022-09-17T21:19:46;24.20;;;12.73;;